DLH24L EDDC-EDDS
Flight info
| Callsign | DLH24L |
|---|---|
| Flight time | 0h 47m |
| Altitude | 30000 |
| Route | ABKIS4E ABKIS Z715 ANELA N869 DKB Z818 GEBNO T726 LBU |
| Aircraft | A20N/M-SDE2E3FGHIRWXY/LB1 |
Departure
| Time | 2026-05-06 16:27 |
|---|---|
| Airport | Dresden Airport (EDDC) |
Arrival
| Time | 2026-05-06 17:14 |
|---|---|
| Airport | Stuttgart Airport (EDDS) |
| Time | Latitude | Longitude | Altitude | Speed | Heading |
|---|---|---|---|---|---|
| 2026-05-06 16:10 | 51.12595 | 13.76604 | 755 ft | 0 kts | 221° |
| 2026-05-06 16:19 | 51.12598 | 13.76608 | 750 ft | 2 kts | 219° |
| 2026-05-06 16:19 | 51.12610 | 13.76626 | 752 ft | 2 kts | 228° |
| 2026-05-06 16:20 | 51.12620 | 13.76646 | 751 ft | 2 kts | 264° |
| 2026-05-06 16:20 | 51.12617 | 13.76664 | 751 ft | 0 kts | 310° |
| 2026-05-06 16:22 | 51.12617 | 13.76663 | 751 ft | 0 kts | 311° |
| 2026-05-06 16:22 | 51.12636 | 13.76655 | 749 ft | 3 kts | 8° |
| 2026-05-06 16:22 | 51.12655 | 13.76648 | 749 ft | 1 kts | 319° |
| 2026-05-06 16:23 | 51.12666 | 13.76629 | 753 ft | 8 kts | 313° |
| 2026-05-06 16:23 | 51.12722 | 13.76529 | 752 ft | 15 kts | 310° |
| 2026-05-06 16:24 | 51.12780 | 13.76418 | 748 ft | 9 kts | 294° |
| 2026-05-06 16:24 | 51.12747 | 13.76330 | 748 ft | 12 kts | 221° |
| 2026-05-06 16:24 | 51.12674 | 13.76231 | 751 ft | 15 kts | 220° |
| 2026-05-06 16:24 | 51.12597 | 13.76125 | 755 ft | 15 kts | 221° |
| 2026-05-06 16:25 | 51.12518 | 13.76016 | 756 ft | 15 kts | 220° |
| 2026-05-06 16:25 | 51.12441 | 13.75910 | 763 ft | 15 kts | 220° |
| 2026-05-06 16:25 | 51.12374 | 13.75790 | 764 ft | 13 kts | 264° |
| 2026-05-06 16:25 | 51.12400 | 13.75644 | 764 ft | 15 kts | 293° |
| 2026-05-06 16:26 | 51.12461 | 13.75521 | 768 ft | 14 kts | 333° |
| 2026-05-06 16:26 | 51.12519 | 13.75543 | 767 ft | 0 kts | 38° |
| 2026-05-06 16:26 | 51.12605 | 13.75656 | 766 ft | 56 kts | 40° |
| 2026-05-06 16:26 | 51.13132 | 13.76380 | 748 ft | 139 kts | 41° |
| 2026-05-06 16:27 | 51.13999 | 13.77599 | 986 ft | 181 kts | 39° |
| 2026-05-06 16:27 | 51.14989 | 13.79046 | 1594 ft | 207 kts | 42° |
| 2026-05-06 16:27 | 51.16111 | 13.80662 | 2362 ft | 228 kts | 41° |
| 2026-05-06 16:27 | 51.17359 | 13.82389 | 3100 ft | 248 kts | 40° |
| 2026-05-06 16:28 | 51.18742 | 13.84270 | 3639 ft | 273 kts | 40° |
| 2026-05-06 16:28 | 51.20173 | 13.86317 | 4606 ft | 279 kts | 50° |
| 2026-05-06 16:28 | 51.21076 | 13.89035 | 5597 ft | 282 kts | 77° |
| 2026-05-06 16:28 | 51.21145 | 13.92128 | 6564 ft | 281 kts | 104° |
| 2026-05-06 16:29 | 51.20369 | 13.94945 | 7478 ft | 279 kts | 131° |
| 2026-05-06 16:29 | 51.18912 | 13.96936 | 8453 ft | 276 kts | 153° |
| 2026-05-06 16:29 | 51.17247 | 13.98486 | 9446 ft | 280 kts | 153° |
| 2026-05-06 16:29 | 51.15604 | 14.00243 | 10241 ft | 293 kts | 147° |
| 2026-05-06 16:30 | 51.13981 | 14.02356 | 10623 ft | 318 kts | 142° |
| 2026-05-06 16:30 | 51.12861 | 14.04020 | 10863 ft | 334 kts | 139° |
| 2026-05-06 16:30 | 51.10659 | 14.07572 | 11892 ft | 343 kts | 138° |
| 2026-05-06 16:30 | 51.08770 | 14.09832 | 12738 ft | 340 kts | 157° |
| 2026-05-06 16:31 | 51.06522 | 14.10884 | 13568 ft | 337 kts | 178° |
| 2026-05-06 16:31 | 51.04204 | 14.10604 | 14336 ft | 335 kts | 197° |
| 2026-05-06 16:31 | 51.02094 | 14.09058 | 15100 ft | 336 kts | 216° |
| 2026-05-06 16:31 | 51.00348 | 14.06580 | 15841 ft | 341 kts | 224° |
| 2026-05-06 16:32 | 50.98635 | 14.03940 | 16567 ft | 345 kts | 223° |
| 2026-05-06 16:32 | 50.96904 | 14.01272 | 17318 ft | 348 kts | 223° |
| 2026-05-06 16:32 | 50.95159 | 13.98595 | 18121 ft | 349 kts | 223° |
| 2026-05-06 16:32 | 50.93406 | 13.95919 | 18803 ft | 351 kts | 223° |
| 2026-05-06 16:33 | 50.91634 | 13.93222 | 19461 ft | 354 kts | 223° |
| 2026-05-06 16:33 | 50.89853 | 13.90515 | 20132 ft | 356 kts | 223° |
| 2026-05-06 16:33 | 50.88056 | 13.87786 | 20773 ft | 359 kts | 223° |
| 2026-05-06 16:34 | 50.84426 | 13.82287 | 22098 ft | 363 kts | 223° |
| 2026-05-06 16:34 | 50.82596 | 13.79521 | 22745 ft | 365 kts | 223° |
| 2026-05-06 16:34 | 50.80829 | 13.76611 | 23346 ft | 369 kts | 229° |
| 2026-05-06 16:34 | 50.79329 | 13.73291 | 23844 ft | 373 kts | 237° |
| 2026-05-06 16:35 | 50.78147 | 13.69614 | 24354 ft | 378 kts | 245° |
| 2026-05-06 16:35 | 50.77225 | 13.65701 | 24865 ft | 381 kts | 247° |
| 2026-05-06 16:35 | 50.76329 | 13.61824 | 25420 ft | 381 kts | 247° |
| 2026-05-06 16:35 | 50.75408 | 13.57883 | 25891 ft | 384 kts | 246° |
| 2026-05-06 16:36 | 50.74475 | 13.53923 | 26358 ft | 386 kts | 246° |
| 2026-05-06 16:36 | 50.73534 | 13.49938 | 26821 ft | 389 kts | 246° |
| 2026-05-06 16:36 | 50.72583 | 13.45922 | 27272 ft | 391 kts | 246° |
| 2026-05-06 16:36 | 50.71627 | 13.41888 | 27754 ft | 393 kts | 246° |
| 2026-05-06 16:37 | 50.70665 | 13.37839 | 28185 ft | 395 kts | 246° |
| 2026-05-06 16:37 | 50.69696 | 13.33766 | 28584 ft | 398 kts | 246° |
| 2026-05-06 16:37 | 50.68720 | 13.29671 | 28986 ft | 400 kts | 246° |
| 2026-05-06 16:37 | 50.67737 | 13.25558 | 29364 ft | 402 kts | 246° |
| 2026-05-06 16:38 | 50.66747 | 13.21421 | 29693 ft | 405 kts | 246° |
| 2026-05-06 16:38 | 50.64754 | 13.13113 | 29756 ft | 407 kts | 246° |
| 2026-05-06 16:39 | 50.62666 | 13.04805 | 29754 ft | 406 kts | 242° |
| 2026-05-06 16:39 | 50.60091 | 12.96925 | 29748 ft | 403 kts | 240° |
| 2026-05-06 16:40 | 50.57526 | 12.89111 | 29755 ft | 402 kts | 240° |
| 2026-05-06 16:40 | 50.54956 | 12.81298 | 29759 ft | 402 kts | 240° |
| 2026-05-06 16:41 | 50.52380 | 12.73496 | 29755 ft | 402 kts | 240° |
| 2026-05-06 16:41 | 50.49799 | 12.65707 | 29761 ft | 402 kts | 240° |
| 2026-05-06 16:42 | 50.47208 | 12.57913 | 29763 ft | 405 kts | 240° |
| 2026-05-06 16:42 | 50.44592 | 12.50065 | 29755 ft | 405 kts | 240° |
| 2026-05-06 16:43 | 50.41975 | 12.42238 | 29758 ft | 405 kts | 240° |
| 2026-05-06 16:43 | 50.39354 | 12.34422 | 29757 ft | 405 kts | 240° |
| 2026-05-06 16:44 | 50.36723 | 12.26604 | 29756 ft | 405 kts | 239° |
| 2026-05-06 16:44 | 50.34007 | 12.18882 | 29757 ft | 404 kts | 235° |
| 2026-05-06 16:45 | 50.30857 | 12.11692 | 29772 ft | 403 kts | 233° |
| 2026-05-06 16:45 | 50.27680 | 12.04456 | 29772 ft | 403 kts | 233° |
| 2026-05-06 16:46 | 50.24549 | 11.97088 | 29772 ft | 407 kts | 236° |
| 2026-05-06 16:46 | 50.21629 | 11.89512 | 29774 ft | 407 kts | 237° |
| 2026-05-06 16:47 | 50.18572 | 11.82090 | 29773 ft | 406 kts | 231° |
| 2026-05-06 16:47 | 50.14809 | 11.75549 | 29769 ft | 405 kts | 226° |
| 2026-05-06 16:48 | 50.10952 | 11.69154 | 29768 ft | 405 kts | 226° |
| 2026-05-06 16:48 | 50.07096 | 11.62755 | 29762 ft | 405 kts | 226° |
| 2026-05-06 16:49 | 50.03161 | 11.56506 | 29756 ft | 404 kts | 224° |
| 2026-05-06 16:49 | 49.99183 | 11.50325 | 29760 ft | 404 kts | 225° |
| 2026-05-06 16:50 | 49.95216 | 11.44138 | 29758 ft | 404 kts | 225° |
| 2026-05-06 16:50 | 49.90957 | 11.38361 | 29757 ft | 408 kts | 216° |
| 2026-05-06 16:51 | 49.86368 | 11.33190 | 29744 ft | 408 kts | 216° |
| 2026-05-06 16:51 | 49.81797 | 11.28024 | 29763 ft | 407 kts | 216° |
| 2026-05-06 16:52 | 49.77258 | 11.22791 | 29763 ft | 407 kts | 220° |
| 2026-05-06 16:52 | 49.73233 | 11.16661 | 29769 ft | 407 kts | 225° |
| 2026-05-06 16:53 | 49.69335 | 11.10391 | 29768 ft | 407 kts | 225° |
| 2026-05-06 16:53 | 49.65405 | 11.04111 | 29769 ft | 404 kts | 225° |
| 2026-05-06 16:54 | 49.61510 | 10.97907 | 29773 ft | 403 kts | 225° |
| 2026-05-06 16:54 | 49.57605 | 10.91702 | 29773 ft | 403 kts | 225° |
| 2026-05-06 16:55 | 49.53697 | 10.85506 | 29746 ft | 403 kts | 225° |
| 2026-05-06 16:55 | 49.51741 | 10.82410 | 29490 ft | 403 kts | 225° |
| 2026-05-06 16:55 | 49.49790 | 10.79327 | 28941 ft | 402 kts | 225° |
| 2026-05-06 16:55 | 49.47845 | 10.76255 | 28346 ft | 399 kts | 225° |
| 2026-05-06 16:56 | 49.45919 | 10.73216 | 27754 ft | 394 kts | 224° |
| 2026-05-06 16:56 | 49.44014 | 10.70218 | 27175 ft | 390 kts | 224° |
| 2026-05-06 16:56 | 49.42128 | 10.67252 | 26582 ft | 386 kts | 224° |
| 2026-05-06 16:56 | 49.40263 | 10.64310 | 25994 ft | 383 kts | 225° |
| 2026-05-06 16:57 | 49.38434 | 10.61357 | 25413 ft | 380 kts | 226° |
| 2026-05-06 16:57 | 49.36625 | 10.58413 | 24830 ft | 378 kts | 226° |
| 2026-05-06 16:57 | 49.34830 | 10.55497 | 24251 ft | 375 kts | 226° |
| 2026-05-06 16:57 | 49.33018 | 10.52618 | 23640 ft | 374 kts | 225° |
| 2026-05-06 16:58 | 49.31182 | 10.49808 | 23034 ft | 372 kts | 224° |
| 2026-05-06 16:58 | 49.29352 | 10.47036 | 22446 ft | 368 kts | 224° |
| 2026-05-06 16:58 | 49.27545 | 10.44295 | 21871 ft | 364 kts | 224° |
| 2026-05-06 16:58 | 49.25758 | 10.41575 | 21290 ft | 361 kts | 224° |
| 2026-05-06 16:59 | 49.23987 | 10.38879 | 20719 ft | 357 kts | 224° |
| 2026-05-06 16:59 | 49.22237 | 10.36201 | 20147 ft | 355 kts | 225° |
| 2026-05-06 16:59 | 49.20510 | 10.33521 | 19589 ft | 354 kts | 225° |
| 2026-05-06 16:59 | 49.18678 | 10.30733 | 19026 ft | 389 kts | 224° |
| 2026-05-06 17:00 | 49.16764 | 10.27885 | 18478 ft | 386 kts | 224° |
| 2026-05-06 17:00 | 49.14828 | 10.25011 | 17895 ft | 380 kts | 224° |
| 2026-05-06 17:00 | 49.12974 | 10.22263 | 17294 ft | 374 kts | 224° |
| 2026-05-06 17:00 | 49.11124 | 10.19521 | 16691 ft | 367 kts | 224° |
| 2026-05-06 17:01 | 49.09324 | 10.16838 | 15973 ft | 357 kts | 224° |
| 2026-05-06 17:01 | 49.07567 | 10.14220 | 15251 ft | 348 kts | 224° |
| 2026-05-06 17:01 | 49.05871 | 10.11669 | 14642 ft | 338 kts | 224° |
| 2026-05-06 17:01 | 49.04198 | 10.09160 | 13813 ft | 337 kts | 224° |
| 2026-05-06 17:02 | 49.02519 | 10.06657 | 12823 ft | 342 kts | 224° |
| 2026-05-06 17:02 | 49.00821 | 10.04150 | 12316 ft | 335 kts | 224° |
| 2026-05-06 17:02 | 48.99172 | 10.01705 | 11682 ft | 326 kts | 224° |
| 2026-05-06 17:02 | 48.97601 | 9.99361 | 11463 ft | 305 kts | 225° |
| 2026-05-06 17:03 | 48.96220 | 9.97047 | 11261 ft | 287 kts | 229° |
| 2026-05-06 17:03 | 48.95353 | 9.95513 | 10946 ft | 282 kts | 229° |
| 2026-05-06 17:03 | 48.94080 | 9.93257 | 10349 ft | 280 kts | 229° |
| 2026-05-06 17:03 | 48.92819 | 9.91024 | 9769 ft | 277 kts | 229° |
| 2026-05-06 17:04 | 48.91563 | 9.88813 | 9194 ft | 274 kts | 229° |
| 2026-05-06 17:04 | 48.90328 | 9.86645 | 8722 ft | 266 kts | 229° |
| 2026-05-06 17:04 | 48.89165 | 9.84609 | 8463 ft | 253 kts | 229° |
| 2026-05-06 17:04 | 48.88028 | 9.82630 | 8056 ft | 246 kts | 229° |
| 2026-05-06 17:05 | 48.86924 | 9.80728 | 7690 ft | 236 kts | 229° |
| 2026-05-06 17:05 | 48.85838 | 9.78876 | 7287 ft | 231 kts | 229° |
| 2026-05-06 17:05 | 48.84780 | 9.77089 | 6975 ft | 226 kts | 229° |
| 2026-05-06 17:05 | 48.83726 | 9.75312 | 6529 ft | 224 kts | 229° |
| 2026-05-06 17:06 | 48.82688 | 9.73586 | 6077 ft | 221 kts | 229° |
| 2026-05-06 17:06 | 48.81644 | 9.71852 | 5466 ft | 223 kts | 229° |
| 2026-05-06 17:06 | 48.80611 | 9.70159 | 5085 ft | 207 kts | 229° |
| 2026-05-06 17:06 | 48.79676 | 9.68651 | 5008 ft | 194 kts | 229° |
| 2026-05-06 17:07 | 48.78719 | 9.67101 | 5002 ft | 202 kts | 229° |
| 2026-05-06 17:07 | 48.77794 | 9.65601 | 4996 ft | 187 kts | 231° |
| 2026-05-06 17:07 | 48.77032 | 9.63909 | 5006 ft | 202 kts | 244° |
| 2026-05-06 17:07 | 48.76505 | 9.61933 | 5013 ft | 202 kts | 251° |
| 2026-05-06 17:08 | 48.76105 | 9.59891 | 5011 ft | 201 kts | 254° |
| 2026-05-06 17:08 | 48.75722 | 9.57833 | 5012 ft | 206 kts | 253° |
| 2026-05-06 17:08 | 48.75325 | 9.55732 | 5015 ft | 210 kts | 254° |
| 2026-05-06 17:08 | 48.74915 | 9.53582 | 4999 ft | 213 kts | 254° |
| 2026-05-06 17:09 | 48.74512 | 9.51425 | 4889 ft | 214 kts | 254° |
| 2026-05-06 17:09 | 48.74106 | 9.49269 | 4603 ft | 207 kts | 254° |
| 2026-05-06 17:09 | 48.73720 | 9.47231 | 4316 ft | 196 kts | 254° |
| 2026-05-06 17:09 | 48.73356 | 9.45301 | 4077 ft | 181 kts | 253° |
| 2026-05-06 17:10 | 48.73022 | 9.43531 | 3825 ft | 168 kts | 253° |
| 2026-05-06 17:10 | 48.72710 | 9.41878 | 3619 ft | 161 kts | 253° |
| 2026-05-06 17:10 | 48.72406 | 9.40270 | 3393 ft | 157 kts | 254° |
| 2026-05-06 17:10 | 48.72108 | 9.38692 | 3181 ft | 155 kts | 253° |
| 2026-05-06 17:11 | 48.71815 | 9.37144 | 2970 ft | 151 kts | 253° |
| 2026-05-06 17:11 | 48.71527 | 9.35618 | 2762 ft | 150 kts | 253° |
| 2026-05-06 17:11 | 48.71243 | 9.34115 | 2559 ft | 147 kts | 253° |
| 2026-05-06 17:11 | 48.70961 | 9.32626 | 2367 ft | 148 kts | 253° |
| 2026-05-06 17:12 | 48.70673 | 9.31100 | 2147 ft | 154 kts | 253° |
| 2026-05-06 17:12 | 48.70371 | 9.29508 | 1900 ft | 161 kts | 253° |
| 2026-05-06 17:12 | 48.70067 | 9.27892 | 1687 ft | 159 kts | 253° |
| 2026-05-06 17:12 | 48.69771 | 9.26352 | 1537 ft | 146 kts | 253° |
| 2026-05-06 17:13 | 48.69499 | 9.24915 | 1412 ft | 139 kts | 254° |
| 2026-05-06 17:13 | 48.69245 | 9.23531 | 1290 ft | 129 kts | 253° |
| 2026-05-06 17:13 | 48.69050 | 9.22523 | 1286 ft | 69 kts | 254° |
| 2026-05-06 17:13 | 48.68925 | 9.21866 | 1286 ft | 63 kts | 254° |
| 2026-05-06 17:14 | 48.68806 | 9.21236 | 1285 ft | 61 kts | 253° |
| 2026-05-06 17:14 | 48.68701 | 9.20679 | 1289 ft | 38 kts | 255° |
| 2026-05-06 17:14 | 48.68681 | 9.20342 | 1285 ft | 20 kts | 276° |
| 2026-05-06 17:14 | 48.68701 | 9.20214 | 1288 ft | 0 kts | 284° |
| 2026-05-06 17:15 | 48.68716 | 9.20117 | 1288 ft | 16 kts | 287° |
| 2026-05-06 17:15 | 48.68786 | 9.19961 | 1289 ft | 18 kts | 313° |
| 2026-05-06 17:15 | 48.68867 | 9.19876 | 1286 ft | 11 kts | 342° |
| 2026-05-06 17:16 | 48.68882 | 9.19794 | 1286 ft | 10 kts | 255° |
| 2026-05-06 17:16 | 48.68859 | 9.19667 | 1287 ft | 15 kts | 254° |
| 2026-05-06 17:16 | 48.68831 | 9.19524 | 1289 ft | 13 kts | 253° |
| 2026-05-06 17:16 | 48.68805 | 9.19454 | 1287 ft | 5 kts | 190° |
| 2026-05-06 17:17 | 48.68761 | 9.19469 | 1286 ft | 7 kts | 165° |
| 2026-05-06 17:17 | 48.68753 | 9.19472 | 1288 ft | 0 kts | 165° |